createdAt,value
2019-03-24T00:00:35.753Z,5.30
2019-03-24T00:03:07.267Z,5.30
2019-03-24T00:05:36.803Z,5.30
2019-03-24T00:08:06.253Z,5.30
2019-03-24T00:10:35.717Z,5.30
2019-03-24T00:13:05.354Z,5.30
2019-03-24T00:15:34.906Z,5.30
2019-03-24T00:18:04.459Z,5.30
2019-03-24T00:20:33.809Z,5.30
2019-03-24T00:23:03.263Z,5.30
2019-03-24T00:25:32.602Z,5.30
2019-03-24T00:28:01.998Z,5.30
2019-03-24T00:30:44.693Z,5.30
2019-03-24T00:33:14.070Z,5.30
2019-03-24T00:35:43.686Z,5.30
2019-03-24T00:38:13.170Z,5.30
2019-03-24T00:40:42.556Z,5.30
2019-03-24T00:43:12.014Z,5.20
2019-03-24T00:45:41.467Z,5.20
2019-03-24T00:48:11.115Z,5.20
2019-03-24T00:50:40.574Z,5.20
2019-03-24T00:53:10.227Z,5.20
2019-03-24T00:55:39.895Z,5.20
2019-03-24T00:58:20.753Z,5.20
2019-03-24T01:01:10.999Z,5.20
2019-03-24T01:03:40.540Z,5.20
2019-03-24T01:06:11.704Z,5.20
2019-03-24T01:08:53.682Z,5.20
2019-03-24T01:11:23.131Z,5.20
2019-03-24T01:13:52.562Z,5.20
2019-03-24T01:16:22.086Z,5.20
2019-03-24T01:18:51.459Z,5.20
2019-03-24T01:21:22.448Z,5.20
2019-03-24T01:23:52.027Z,5.10
2019-03-24T01:26:21.475Z,5.10
2019-03-24T01:28:50.818Z,5.10
2019-03-24T01:31:20.279Z,5.20
2019-03-24T01:33:49.840Z,5.20
2019-03-24T01:36:19.435Z,5.10
2019-03-24T01:38:48.774Z,5.10
2019-03-24T01:41:18.149Z,5.10
2019-03-24T01:43:47.628Z,5.10
2019-03-24T01:46:18.116Z,5.10
2019-03-24T01:48:47.530Z,5.20
2019-03-24T01:51:16.911Z,5.20
2019-03-24T01:53:46.255Z,5.30
2019-03-24T01:56:15.670Z,5.30
2019-03-24T01:58:45.089Z,5.20
2019-03-24T02:01:16.121Z,5.20
2019-03-24T02:03:45.503Z,5.20
2019-03-24T02:06:14.899Z,5.20
2019-03-24T02:08:44.274Z,5.10
2019-03-24T02:11:13.660Z,5.20
2019-03-24T02:13:43.034Z,5.10
2019-03-24T02:16:12.489Z,5.20
2019-03-24T02:18:41.935Z,5.20
2019-03-24T02:21:11.323Z,5.10
2019-03-24T02:23:40.836Z,5.20
2019-03-24T02:26:11.777Z,5.20
2019-03-24T02:28:41.166Z,5.20
2019-03-24T02:31:10.622Z,5.10
2019-03-24T02:33:40.016Z,5.10
2019-03-24T02:36:09.558Z,5.10
2019-03-24T02:38:39.083Z,5.10
2019-03-24T02:41:08.500Z,5.10
2019-03-24T02:43:37.952Z,5.10
2019-03-24T02:46:07.403Z,5.10
2019-03-24T02:48:38.439Z,5.10
2019-03-24T02:51:07.812Z,5.10
2019-03-24T02:53:37.367Z,5.00
2019-03-24T02:56:08.472Z,5.10
2019-03-24T02:58:39.388Z,5.00
2019-03-24T03:01:10.300Z,5.00
2019-03-24T03:03:39.658Z,5.00
2019-03-24T03:06:09.049Z,4.90
2019-03-24T03:08:38.660Z,4.90
2019-03-24T03:11:08.196Z,4.90
2019-03-24T03:13:37.725Z,4.90
2019-03-24T03:16:07.388Z,4.90
2019-03-24T03:18:38.072Z,4.80
2019-03-24T03:21:07.586Z,4.80
2019-03-24T03:23:37.217Z,4.80
2019-03-24T03:26:06.863Z,4.90
2019-03-24T03:28:37.837Z,4.90
2019-03-24T03:31:07.348Z,4.90
2019-03-24T03:33:37.122Z,4.90
2019-03-24T03:36:06.661Z,4.90
2019-03-24T03:38:36.180Z,4.90
2019-03-24T03:41:05.763Z,4.80
2019-03-24T03:43:35.232Z,4.90
2019-03-24T03:46:04.836Z,4.90
2019-03-24T03:48:35.395Z,4.90
2019-03-24T03:51:06.634Z,4.90
2019-03-24T03:53:36.027Z,4.90
2019-03-24T03:56:06.748Z,4.90
2019-03-24T03:58:55.540Z,4.80
2019-03-24T04:01:25.009Z,4.80
2019-03-24T04:03:54.417Z,4.80
2019-03-24T04:06:23.824Z,4.80
2019-03-24T04:08:53.286Z,4.80
2019-03-24T04:11:22.711Z,4.70
2019-03-24T04:13:52.245Z,4.70
2019-03-24T04:16:21.588Z,4.70
2019-03-24T04:18:51.112Z,4.70
2019-03-24T04:21:20.622Z,4.70
2019-03-24T04:23:50.044Z,4.70
2019-03-24T04:26:19.541Z,4.60
2019-03-24T04:28:48.973Z,4.60
2019-03-24T04:31:18.488Z,4.60
2019-03-24T04:33:47.840Z,4.50
2019-03-24T04:36:17.229Z,4.50
2019-03-24T04:38:46.588Z,4.50
2019-03-24T04:41:16.042Z,4.40
2019-03-24T04:43:45.384Z,4.30
2019-03-24T04:46:14.773Z,4.30
2019-03-24T04:49:03.631Z,4.40
2019-03-24T04:51:33.087Z,4.40
2019-03-24T04:54:02.494Z,4.40
2019-03-24T04:56:31.870Z,4.50
2019-03-24T04:59:02.776Z,4.60
2019-03-24T05:01:32.217Z,4.60
2019-03-24T05:04:01.585Z,4.50
2019-03-24T05:06:31.039Z,4.50
2019-03-24T05:09:01.168Z,4.60
2019-03-24T05:11:30.555Z,4.50
2019-03-24T05:13:59.979Z,4.60
2019-03-24T05:16:32.389Z,4.60
2019-03-24T05:19:01.732Z,4.50
2019-03-24T05:21:31.130Z,4.60
2019-03-24T05:24:00.477Z,4.50
2019-03-24T05:26:29.859Z,4.50
2019-03-24T05:28:59.204Z,4.60
2019-03-24T05:31:28.577Z,4.60
2019-03-24T05:33:57.959Z,4.60
2019-03-24T05:36:28.432Z,4.60
2019-03-24T05:38:57.954Z,4.60
2019-03-24T05:41:27.342Z,4.60
2019-03-24T05:43:56.740Z,4.50
2019-03-24T05:46:26.128Z,4.60
2019-03-24T05:48:55.591Z,4.60
2019-03-24T05:51:25.050Z,4.60
2019-03-24T05:53:54.595Z,4.70
2019-03-24T05:56:24.011Z,4.60
2019-03-24T05:58:53.512Z,4.70
2019-03-24T06:01:22.976Z,4.70
2019-03-24T06:03:52.366Z,4.70
2019-03-24T06:06:23.299Z,4.80
2019-03-24T06:08:52.750Z,4.80
2019-03-24T06:11:22.149Z,4.90
2019-03-24T06:13:52.114Z,4.90
2019-03-24T06:16:21.579Z,5.00
2019-03-24T06:18:50.925Z,5.10
2019-03-24T06:21:33.620Z,5.20
2019-03-24T06:24:03.013Z,5.30
2019-03-24T06:26:32.543Z,5.30
2019-03-24T06:29:02.221Z,5.40
2019-03-24T06:31:31.639Z,5.40
2019-03-24T06:34:01.107Z,5.50
2019-03-24T06:36:44.688Z,5.50
2019-03-24T06:39:14.077Z,5.60
2019-03-24T06:41:43.467Z,5.70
2019-03-24T06:44:12.852Z,5.70
2019-03-24T06:46:42.329Z,5.80
2019-03-24T06:49:12.060Z,5.80
2019-03-24T06:51:41.539Z,5.90
2019-03-24T06:54:24.243Z,6.10
2019-03-24T06:56:53.974Z,6.20
2019-03-24T06:59:23.495Z,6.50
2019-03-24T07:01:53.115Z,6.70
2019-03-24T07:04:22.591Z,7.00
2019-03-24T07:06:52.016Z,7.20
2019-03-24T07:09:21.490Z,7.30
2019-03-24T07:11:50.841Z,7.50
2019-03-24T07:14:20.242Z,7.60
2019-03-24T07:16:49.746Z,8.00
2019-03-24T07:19:19.110Z,8.10
2019-03-24T07:21:48.520Z,8.10
2019-03-24T07:24:19.575Z,8.10
2019-03-24T07:26:50.561Z,7.90
2019-03-24T07:29:19.922Z,7.90
2019-03-24T07:31:49.466Z,7.90
2019-03-24T07:34:18.807Z,7.80
2019-03-24T07:36:48.234Z,7.70
2019-03-24T07:39:17.576Z,7.60
2019-03-24T07:41:46.979Z,7.40
2019-03-24T07:44:16.311Z,7.40
2019-03-24T07:46:45.683Z,7.50
2019-03-24T07:49:15.162Z,7.60
2019-03-24T07:51:44.588Z,7.60
2019-03-24T07:54:14.050Z,7.60
2019-03-24T07:56:43.472Z,7.70
2019-03-24T07:59:12.915Z,7.70
2019-03-24T08:01:42.330Z,7.70
2019-03-24T08:04:11.766Z,7.70
2019-03-24T08:06:41.166Z,7.80
2019-03-24T08:09:10.532Z,7.90
2019-03-24T08:11:40.004Z,8.00
2019-03-24T08:14:09.357Z,8.10
2019-03-24T08:16:38.806Z,8.10
2019-03-24T08:19:08.386Z,8.20
2019-03-24T08:21:37.758Z,8.20
2019-03-24T08:24:07.105Z,8.20
2019-03-24T08:26:36.834Z,8.30
2019-03-24T08:29:06.220Z,8.30
2019-03-24T08:31:35.588Z,8.30
2019-03-24T08:34:05.031Z,8.50
2019-03-24T08:36:37.183Z,8.70
2019-03-24T08:39:06.983Z,8.80
2019-03-24T08:41:38.723Z,9.10
2019-03-24T08:44:07.620Z,8.90
2019-03-24T08:46:36.967Z,8.90
2019-03-24T08:49:06.531Z,9.10
2019-03-24T08:51:36.115Z,9.30
2019-03-24T08:54:05.632Z,9.50
2019-03-24T08:56:35.295Z,9.80
2019-03-24T08:59:04.797Z,9.90
2019-03-24T09:01:34.308Z,10.00
2019-03-24T09:04:03.769Z,10.30
2019-03-24T09:06:33.200Z,10.50
2019-03-24T09:09:03.029Z,10.60
2019-03-24T09:11:32.448Z,10.50
2019-03-24T09:14:03.509Z,10.20
2019-03-24T09:16:32.931Z,10.30
2019-03-24T09:19:02.485Z,11.40
2019-03-24T09:21:31.998Z,12.10
2019-03-24T09:24:01.500Z,12.90
2019-03-24T09:26:30.860Z,13.00
2019-03-24T09:29:00.332Z,12.80
2019-03-24T09:31:29.756Z,13.00
2019-03-24T09:33:59.157Z,12.50
2019-03-24T09:36:28.517Z,12.10
2019-03-24T09:38:58.113Z,11.80
2019-03-24T09:41:27.462Z,11.80
2019-03-24T09:43:58.478Z,13.20
2019-03-24T09:46:27.946Z,14.00
2019-03-24T09:49:03.115Z,14.90
2019-03-24T09:51:28.504Z,14.90
2019-03-24T09:53:58.046Z,14.40
2019-03-24T09:56:27.519Z,14.60
2019-03-24T09:58:56.926Z,15.00
2019-03-24T10:01:26.392Z,14.30
2019-03-24T10:03:55.921Z,13.60
2019-03-24T10:06:25.358Z,13.40
2019-03-24T10:08:54.800Z,13.40
2019-03-24T10:11:24.208Z,13.10
2019-03-24T10:13:53.750Z,12.70
2019-03-24T10:16:23.974Z,12.80
2019-03-24T10:18:53.337Z,13.70
2019-03-24T10:21:22.792Z,14.60
2019-03-24T10:23:52.232Z,15.30
2019-03-24T10:26:21.621Z,16.10
2019-03-24T10:28:51.047Z,16.90
2019-03-24T10:31:20.426Z,16.80
2019-03-24T10:33:49.786Z,15.80
2019-03-24T10:36:19.250Z,14.50
2019-03-24T10:38:48.698Z,13.40
2019-03-24T10:41:18.187Z,13.00
2019-03-24T10:43:47.622Z,14.30
2019-03-24T10:46:17.086Z,15.60
2019-03-24T10:48:46.448Z,16.60
2019-03-24T10:51:15.855Z,17.70
2019-03-24T10:53:45.275Z,17.30
2019-03-24T10:56:14.809Z,17.00
2019-03-24T10:58:44.255Z,16.00
2019-03-24T11:01:13.668Z,15.00
2019-03-24T11:03:43.090Z,14.40
2019-03-24T11:06:12.523Z,15.00
2019-03-24T11:08:41.890Z,15.50
2019-03-24T11:11:11.261Z,16.20
2019-03-24T11:13:40.825Z,16.00
2019-03-24T11:16:10.432Z,16.20
2019-03-24T11:18:39.894Z,16.60
2019-03-24T11:21:09.294Z,16.80
2019-03-24T11:23:38.762Z,16.80
2019-03-24T11:26:08.135Z,16.70
2019-03-24T11:28:39.129Z,17.10
2019-03-24T11:31:27.960Z,17.00
2019-03-24T11:33:57.351Z,17.10
2019-03-24T11:36:26.847Z,17.30
2019-03-24T11:38:56.249Z,17.00
2019-03-24T11:41:25.953Z,16.90
2019-03-24T11:44:08.430Z,17.20
2019-03-24T11:46:37.980Z,17.40
2019-03-24T11:49:17.953Z,17.20
2019-03-24T11:51:47.509Z,16.80
2019-03-24T11:54:17.035Z,15.50
2019-03-24T11:56:46.546Z,14.50
2019-03-24T11:59:16.066Z,14.60
2019-03-24T12:01:45.551Z,15.40
2019-03-24T12:04:14.974Z,16.10
2019-03-24T12:06:44.467Z,16.20
2019-03-24T12:09:15.591Z,15.70
2019-03-24T12:11:45.003Z,15.00
2019-03-24T12:14:14.479Z,15.00
2019-03-24T12:16:44.024Z,14.60
2019-03-24T12:19:13.553Z,15.60
2019-03-24T12:21:43.012Z,15.50
2019-03-24T12:24:12.494Z,15.70
2019-03-24T12:26:41.944Z,15.50
2019-03-24T12:29:11.403Z,16.20
2019-03-24T12:31:40.783Z,15.00
2019-03-24T12:34:10.243Z,15.00
2019-03-24T12:36:39.629Z,14.40
2019-03-24T12:39:10.608Z,14.40
2019-03-24T12:41:40.127Z,14.00
2019-03-24T12:44:09.577Z,13.80
2019-03-24T12:46:39.032Z,14.10
2019-03-24T12:49:08.499Z,14.00
2019-03-24T12:51:37.981Z,13.90
2019-03-24T12:54:07.530Z,14.70
2019-03-24T12:56:36.998Z,15.30
2019-03-24T12:59:06.350Z,15.30
2019-03-24T13:01:35.884Z,14.80
2019-03-24T13:04:05.374Z,14.20
2019-03-24T13:06:35.679Z,14.70
2019-03-24T13:09:07.151Z,14.40
2019-03-24T13:11:37.070Z,14.50
2019-03-24T13:14:06.495Z,14.20
2019-03-24T13:16:37.610Z,14.50
2019-03-24T13:19:06.987Z,14.50
2019-03-24T13:21:36.528Z,14.90
2019-03-24T13:24:06.191Z,14.50
2019-03-24T13:26:35.651Z,14.40
2019-03-24T13:29:05.160Z,14.50
2019-03-24T13:31:34.904Z,14.70
2019-03-24T13:34:04.319Z,14.60
2019-03-24T13:36:37.123Z,14.00
2019-03-24T13:39:07.172Z,14.00
2019-03-24T13:41:36.806Z,14.20
2019-03-24T13:44:06.266Z,14.60
2019-03-24T13:46:35.831Z,14.70
2019-03-24T13:49:06.645Z,14.50
2019-03-24T13:51:36.091Z,14.60
2019-03-24T13:54:05.699Z,14.70
2019-03-24T13:56:35.077Z,14.70
2019-03-24T13:59:04.559Z,14.50
2019-03-24T14:01:34.098Z,13.70
2019-03-24T14:04:03.531Z,13.70
2019-03-24T14:06:32.979Z,13.70
2019-03-24T14:09:02.399Z,13.90
2019-03-24T14:11:31.972Z,14.10
2019-03-24T14:14:01.404Z,14.40
2019-03-24T14:16:30.812Z,14.30
2019-03-24T14:19:00.260Z,14.20
2019-03-24T14:21:31.260Z,14.10
2019-03-24T14:24:00.695Z,13.80
2019-03-24T14:26:30.119Z,13.90
2019-03-24T14:28:59.479Z,13.90
2019-03-24T14:31:28.923Z,13.70
2019-03-24T14:33:58.282Z,13.10
2019-03-24T14:36:27.748Z,13.40
2019-03-24T14:38:57.099Z,12.90
2019-03-24T14:41:45.941Z,12.80
2019-03-24T14:44:15.474Z,13.30
2019-03-24T14:46:44.830Z,13.50
2019-03-24T14:49:14.380Z,13.80
2019-03-24T14:51:43.810Z,13.80
2019-03-24T14:54:13.191Z,14.00
2019-03-24T14:56:42.700Z,13.90
2019-03-24T14:59:12.165Z,13.90
2019-03-24T15:01:41.598Z,14.00
2019-03-24T15:04:11.040Z,13.60
2019-03-24T15:06:40.463Z,13.30
2019-03-24T15:09:09.846Z,13.50
2019-03-24T15:11:39.260Z,13.60
2019-03-24T15:14:08.788Z,13.60
2019-03-24T15:16:38.136Z,13.40
2019-03-24T15:19:07.649Z,13.60
2019-03-24T15:21:37.005Z,13.30
2019-03-24T15:24:06.623Z,13.00
2019-03-24T15:26:35.970Z,13.00
2019-03-24T15:29:05.497Z,12.90
2019-03-24T15:31:34.843Z,13.00
2019-03-24T15:34:05.128Z,13.10
2019-03-24T15:36:34.528Z,13.00
2019-03-24T15:39:07.174Z,13.00
2019-03-24T15:41:36.577Z,12.70
2019-03-24T15:44:07.687Z,12.70
2019-03-24T15:46:37.063Z,12.10
2019-03-24T15:49:06.674Z,12.00
2019-03-24T15:51:37.560Z,11.90
2019-03-24T15:54:07.062Z,11.70
2019-03-24T15:56:36.657Z,11.60
2019-03-24T15:59:06.088Z,11.50
2019-03-24T16:01:35.539Z,11.00
2019-03-24T16:04:05.029Z,10.70
2019-03-24T16:06:34.593Z,10.60
2019-03-24T16:09:05.987Z,10.50
2019-03-24T16:11:35.396Z,10.20
2019-03-24T16:14:06.199Z,10.00
2019-03-24T16:16:35.731Z,9.90
2019-03-24T16:19:06.995Z,9.80
2019-03-24T16:21:37.045Z,9.80
2019-03-24T16:24:06.462Z,9.70
2019-03-24T16:26:36.125Z,9.70
2019-03-24T16:29:05.544Z,9.80
2019-03-24T16:31:35.095Z,9.60
2019-03-24T16:34:05.513Z,9.70
2019-03-24T16:36:35.058Z,9.60
2019-03-24T16:39:07.047Z,9.60
2019-03-24T16:41:36.500Z,9.60
2019-03-24T16:44:06.074Z,9.50
2019-03-24T16:46:35.531Z,9.50
2019-03-24T16:49:04.940Z,9.40
2019-03-24T16:51:38.697Z,9.10
2019-03-24T16:54:05.683Z,9.10
2019-03-24T16:56:35.221Z,8.90
2019-03-24T16:59:04.779Z,8.90
2019-03-24T17:01:34.874Z,8.90
2019-03-24T17:04:04.364Z,8.80
2019-03-24T17:06:33.842Z,8.70
2019-03-24T17:09:04.007Z,8.60
2019-03-24T17:11:33.490Z,8.60
2019-03-24T17:14:02.981Z,8.50
2019-03-24T17:16:32.380Z,8.50
2019-03-24T17:19:01.733Z,8.40
2019-03-24T17:21:32.679Z,8.40
2019-03-24T17:24:02.102Z,8.40
2019-03-24T17:26:31.753Z,8.30
2019-03-24T17:29:01.214Z,8.30
2019-03-24T17:31:30.597Z,8.20
2019-03-24T17:34:00.019Z,8.10
2019-03-24T17:36:29.710Z,8.00
2019-03-24T17:38:59.086Z,7.90
2019-03-24T17:41:28.474Z,7.80
2019-03-24T17:44:03.214Z,7.70
2019-03-24T17:46:28.999Z,7.60
2019-03-24T17:48:58.424Z,7.50
2019-03-24T17:51:27.873Z,7.50
2019-03-24T17:53:57.555Z,7.40
2019-03-24T17:56:26.935Z,7.30
2019-03-24T17:58:56.328Z,7.20
2019-03-24T18:01:25.883Z,7.10
2019-03-24T18:03:55.264Z,7.00
2019-03-24T18:06:24.821Z,7.00
2019-03-24T18:08:54.238Z,6.90
2019-03-24T18:11:23.619Z,6.80
2019-03-24T18:13:53.052Z,6.70
2019-03-24T18:16:22.592Z,6.70
2019-03-24T18:18:53.563Z,6.60
2019-03-24T18:21:23.078Z,6.50
2019-03-24T18:23:52.440Z,6.50
2019-03-24T18:26:21.921Z,6.40
2019-03-24T18:28:51.343Z,6.30
2019-03-24T18:31:20.805Z,6.30
2019-03-24T18:33:51.799Z,6.20
2019-03-24T18:36:21.246Z,6.20
2019-03-24T18:38:50.674Z,6.10
2019-03-24T18:41:20.147Z,6.10
2019-03-24T18:43:49.632Z,6.00
2019-03-24T18:46:19.030Z,5.90
2019-03-24T18:48:48.440Z,5.80
2019-03-24T18:51:17.985Z,5.80
2019-03-24T18:53:47.407Z,5.70
2019-03-24T18:56:16.850Z,5.60
2019-03-24T18:58:46.207Z,5.60
2019-03-24T19:01:15.735Z,5.60
2019-03-24T19:03:45.099Z,5.60
2019-03-24T19:06:14.495Z,5.50
2019-03-24T19:08:43.843Z,5.50
2019-03-24T19:11:13.245Z,5.50
2019-03-24T19:13:42.667Z,5.50
2019-03-24T19:16:12.123Z,5.40
2019-03-24T19:18:41.548Z,5.30
2019-03-24T19:21:11.006Z,5.20
2019-03-24T19:23:40.431Z,5.20
2019-03-24T19:26:09.903Z,5.20
2019-03-24T19:28:39.252Z,5.10
2019-03-24T19:31:09.116Z,5.00
2019-03-24T19:33:38.781Z,5.00
2019-03-24T19:36:08.224Z,4.90
2019-03-24T19:38:38.411Z,4.80
2019-03-24T19:41:07.920Z,4.70
2019-03-24T19:43:39.754Z,4.70
2019-03-24T19:46:08.509Z,4.60
2019-03-24T19:48:37.994Z,4.60
2019-03-24T19:51:07.460Z,4.60
2019-03-24T19:53:36.997Z,4.60
2019-03-24T19:56:06.501Z,4.60
2019-03-24T19:58:35.925Z,4.60
2019-03-24T20:01:05.698Z,4.60
2019-03-24T20:03:35.188Z,4.60
2019-03-24T20:06:04.775Z,4.50
2019-03-24T20:08:34.217Z,4.50
2019-03-24T20:11:03.727Z,4.40
2019-03-24T20:13:33.081Z,4.40
2019-03-24T20:16:02.463Z,4.30
2019-03-24T20:18:31.810Z,4.30
2019-03-24T20:21:01.203Z,4.30
2019-03-24T20:23:30.554Z,4.30
2019-03-24T20:26:00.188Z,4.40
2019-03-24T20:28:29.687Z,4.40
2019-03-24T20:30:59.090Z,4.40
2019-03-24T20:33:28.602Z,4.40
2019-03-24T20:35:57.994Z,4.50
2019-03-24T20:38:27.341Z,4.40
2019-03-24T20:40:56.794Z,4.50
2019-03-24T20:43:26.144Z,4.40
2019-03-24T20:45:55.635Z,4.40
2019-03-24T20:48:25.002Z,4.40
2019-03-24T20:50:54.388Z,4.30
2019-03-24T20:53:23.799Z,4.40
2019-03-24T20:55:53.195Z,4.40
2019-03-24T20:58:22.614Z,4.50
2019-03-24T21:00:52.129Z,4.60
2019-03-24T21:03:21.485Z,4.60
2019-03-24T21:05:50.947Z,4.70
2019-03-24T21:08:20.303Z,4.70
2019-03-24T21:10:49.825Z,4.80
2019-03-24T21:13:19.290Z,4.80
2019-03-24T21:15:49.673Z,4.80
2019-03-24T21:18:19.127Z,4.90
2019-03-24T21:20:48.691Z,5.00
2019-03-24T21:23:40.456Z,5.00
2019-03-24T21:26:11.300Z,5.10
2019-03-24T21:28:40.868Z,5.20
2019-03-24T21:31:10.253Z,5.30
2019-03-24T21:33:39.667Z,5.30
2019-03-24T21:36:09.198Z,5.40
2019-03-24T21:38:38.617Z,5.50
2019-03-24T21:41:08.082Z,5.50
2019-03-24T21:43:37.436Z,5.50
2019-03-24T21:46:06.822Z,5.50
2019-03-24T21:48:36.166Z,5.60
2019-03-24T21:51:05.621Z,5.60
2019-03-24T21:53:40.627Z,5.60
2019-03-24T21:56:06.268Z,5.70
2019-03-24T21:58:35.630Z,5.70
2019-03-24T22:01:06.795Z,5.70
2019-03-24T22:03:37.868Z,5.80
2019-03-24T22:06:07.382Z,5.80
2019-03-24T22:08:36.719Z,5.90
2019-03-24T22:11:06.402Z,5.90
2019-03-24T22:13:35.758Z,5.90
2019-03-24T22:16:05.298Z,5.90
2019-03-24T22:18:34.711Z,5.90
2019-03-24T22:21:04.880Z,5.90
2019-03-24T22:23:34.274Z,6.00
2019-03-24T22:26:03.756Z,6.00
2019-03-24T22:28:33.098Z,6.00
2019-03-24T22:31:02.565Z,6.00
2019-03-24T22:33:31.911Z,6.00
2019-03-24T22:36:01.356Z,6.10
2019-03-24T22:38:30.753Z,6.20
2019-03-24T22:41:00.220Z,6.10
2019-03-24T22:43:29.687Z,6.00
2019-03-24T22:46:12.311Z,6.00
2019-03-24T22:48:41.707Z,5.90
2019-03-24T22:51:11.106Z,5.90
2019-03-24T22:53:40.654Z,5.90
2019-03-24T22:56:10.265Z,5.90
2019-03-24T22:58:39.771Z,5.90
2019-03-24T23:01:10.063Z,5.80
2019-03-24T23:03:39.518Z,5.80
2019-03-24T23:06:09.207Z,5.80
2019-03-24T23:08:38.646Z,5.80
2019-03-24T23:11:08.038Z,5.80
2019-03-24T23:13:39.097Z,5.90
2019-03-24T23:16:08.657Z,5.90
2019-03-24T23:18:38.058Z,5.90
2019-03-24T23:21:07.436Z,6.00
2019-03-24T23:23:37.798Z,6.10
2019-03-24T23:26:07.230Z,6.20
2019-03-24T23:28:49.730Z,6.20
2019-03-24T23:31:19.108Z,6.20
2019-03-24T23:33:48.641Z,6.30
2019-03-24T23:36:19.569Z,6.20
2019-03-24T23:38:49.388Z,6.30
2019-03-24T23:41:20.389Z,6.30
2019-03-24T23:43:50.177Z,6.20
2019-03-24T23:46:19.535Z,6.30
2019-03-24T23:48:48.986Z,6.30
2019-03-24T23:51:18.449Z,6.30
2019-03-24T23:53:47.891Z,6.30
2019-03-24T23:56:17.488Z,6.30
2019-03-24T23:58:46.918Z,6.40
